.
WxDataArchive / Data Records for 2016-02-14
2016-02-13 February 2016 2016-02-15

Data Records for Sunday, 14 February 2016

Time	Temp	Chill	HIndex	Humid	Dewpt	 Wind 	HiWind	WindDir	Rain 	Barom
-----	----	-----	------	-----	-----	------	------	-------	-----	-----
00:00	7.7	7.7	7.7	75	1.5	0	0	---	0.00	30.524 
00:05	7.7	7.7	7.7	74	1.2	0	0	---	0.00	30.524 
00:10	7.7	7.7	7.7	74	1.2	0	0	---	0.00	30.524 
00:15	7.7	7.7	7.7	74	1.2	0	0	---	0.00	30.523 
00:20	7.7	7.7	7.7	74	1.2	0	0	---	0.00	30.523 
00:25	7.7	7.7	7.7	74	1.2	0	0	---	0.00	30.523 
00:30	7.7	7.7	7.7	74	1.2	0	0	---	0.00	30.525 
00:35	7.7	7.7	7.7	74	1.2	0	0	---	0.00	30.525 
00:40	7.6	7.6	7.6	74	1.1	0	0	---	0.00	30.525 
00:45	7.6	7.6	7.6	74	1.1	0	0	---	0.00	30.522 
00:50	7.6	7.6	7.6	74	1.1	0	0	---	0.00	30.522 
00:55	7.4	7.4	7.4	74	0.9	0	0	---	0.00	30.522 
01:00	7.4	7.4	7.4	74	0.9	0	0	---	0.00	30.522 
01:05	7.4	7.4	7.4	74	0.9	0	0	---	0.00	30.522 
01:10	7.4	7.4	7.4	74	0.9	0	0	---	0.00	30.522 
01:15	7.2	7.2	7.2	74	0.7	0	0	---	0.00	30.522 
01:20	7.2	7.2	7.2	74	0.7	0	0	---	0.00	30.522 
01:25	7.2	7.2	7.2	75	1.0	0	0	---	0.00	30.522 
01:30	7.4	7.4	7.4	75	1.2	0	0	---	0.00	30.522 
01:35	7.4	7.4	7.4	75	1.2	0	0	---	0.00	30.522 
01:40	7.6	7.6	7.6	76	1.6	0	0	---	0.00	30.522 
01:45	7.7	7.7	7.7	76	1.7	0	0	---	0.00	30.517 
01:50	7.9	7.9	7.9	76	1.9	0	0	---	0.00	30.517 
01:55	7.9	7.9	7.9	76	1.9	0	0	---	0.00	30.517 
02:00	7.9	7.9	7.9	76	1.9	0	0	---	0.00	30.509 
02:05	7.9	7.9	7.9	76	1.9	0	0	---	0.00	30.509 
02:10	7.9	7.9	7.9	76	1.9	0	0	---	0.00	30.509 
02:15	7.9	7.9	7.9	76	1.9	0	0	---	0.00	30.507 
02:20	7.9	7.9	7.9	76	1.9	0	0	---	0.00	30.507 
02:25	7.9	7.9	7.9	77	2.2	0	0	---	0.00	30.507 
02:30	8.1	8.1	8.1	77	2.4	0	0	---	0.00	30.508 
02:35	8.1	8.1	8.1	77	2.4	0	0	---	0.00	30.508 
02:40	8.3	8.3	8.3	77	2.6	0	0	---	0.00	30.508 
02:45	8.4	8.4	8.4	77	2.7	0	0	---	0.00	30.514 
02:50	8.6	8.6	8.6	77	2.9	0	0	---	0.00	30.514 
02:55	8.8	8.8	8.8	77	3.1	0	0	---	0.00	30.514 
03:00	9.2	9.2	9.2	77	3.5	0	0	---	0.00	30.517 
03:05	9.3	9.3	9.3	77	3.6	0	0	---	0.00	30.517 
03:10	9.5	9.5	9.5	77	3.8	0	0	---	0.00	30.517 
03:15	9.7	9.7	9.7	77	4.0	0	1	248	0.00	30.507 
03:20	9.9	9.9	9.9	77	4.2	0	1	248	0.00	30.507 
03:25	9.9	9.9	9.9	77	4.2	0	0	---	0.00	30.507 
03:30	9.9	9.9	9.9	77	4.2	0	0	---	0.00	30.505 
03:35	10.0	10.0	10.0	77	4.3	0	0	---	0.00	30.505 
03:40	10.0	10.0	10.0	76	4.0	0	0	---	0.00	30.505 
03:45	10.0	10.0	10.0	76	4.0	0	0	---	0.00	30.501 
03:50	10.0	10.0	10.0	76	4.0	0	0	---	0.00	30.501 
03:55	10.0	10.0	10.0	75	3.7	0	1	248	0.00	30.501 
04:00	10.2	10.2	10.2	75	3.9	0	0	---	0.00	30.501 
04:05	10.2	10.2	10.2	75	3.9	0	0	---	0.00	30.501 
04:10	10.2	10.2	10.2	74	3.6	0	0	---	0.00	30.501 
04:15	10.2	10.2	10.2	75	3.9	0	0	---	0.00	30.491 
04:20	10.2	10.2	10.2	75	3.9	0	0	---	0.00	30.491 
04:25	10.2	10.2	10.2	75	3.9	0	0	---	0.00	30.491 
04:30	10.0	10.0	10.0	75	3.7	0	1	248	0.00	30.486 
04:35	9.9	9.9	9.9	75	3.6	0	0	---	0.00	30.486 
04:40	9.7	9.7	9.7	75	3.4	0	1	248	0.00	30.486 
04:45	9.5	9.5	9.5	75	3.2	0	1	248	0.00	30.486 
04:50	9.3	9.3	9.3	75	3.0	0	1	248	0.00	30.486 
04:55	9.2	9.2	9.2	75	2.9	0	1	248	0.00	30.486 
05:00	8.8	8.8	8.8	76	2.8	0	0	---	0.00	30.485 
05:05	8.6	8.6	8.6	76	2.6	0	1	248	0.00	30.485 
05:10	8.4	8.4	8.4	77	2.7	0	1	248	0.00	30.485 
05:15	8.4	8.4	8.4	77	2.7	0	1	248	0.00	30.477 
05:20	8.3	8.3	8.3	77	2.6	0	1	248	0.00	30.477 
05:25	8.1	8.1	8.1	77	2.4	0	1	248	0.00	30.477 
05:30	7.9	7.9	7.9	77	2.2	0	0	---	0.00	30.478 
05:35	7.7	7.7	7.7	77	2.0	0	0	---	0.00	30.478 
05:40	7.6	7.6	7.6	78	2.2	0	1	248	0.00	30.478 
05:45	7.4	7.4	7.4	78	2.0	0	0	---	0.00	30.479 
05:50	7.4	7.4	7.4	78	2.0	0	1	248	0.00	30.479 
05:55	7.2	7.2	7.2	78	1.8	0	1	248	0.00	30.479 
06:00	7.2	7.2	7.2	78	1.8	0	0	---	0.00	30.484 
06:05	7.0	7.0	7.0	78	1.6	0	0	---	0.00	30.484 
06:10	7.0	7.0	7.0	79	1.9	0	0	---	0.00	30.484 
06:15	6.9	6.9	6.9	78	1.5	0	0	---	0.00	30.484 
06:20	6.9	6.9	6.9	78	1.5	0	0	---	0.00	30.484 
06:25	6.7	6.7	6.7	78	1.3	0	0	---	0.00	30.484 
06:30	6.3	6.3	6.3	78	0.9	0	0	---	0.00	30.485 
06:35	6.3	6.3	6.3	78	0.9	0	0	---	0.00	30.485 
06:40	6.1	6.1	6.1	78	0.7	0	0	---	0.00	30.485 
06:45	6.0	6.0	6.0	78	0.6	0	0	---	0.00	30.486 
06:50	5.8	5.8	5.8	78	0.4	0	0	---	0.00	30.486 
06:55	5.8	5.8	5.8	78	0.4	0	0	---	0.00	30.486 
07:00	5.6	5.6	5.6	78	0.3	0	0	---	0.00	30.489 
07:05	5.4	5.4	5.4	78	0.1	0	0	---	0.00	30.489 
07:10	5.4	5.4	5.4	78	0.1	0	0	---	0.00	30.489 
07:15	5.2	5.2	5.2	78	-0.1	0	0	---	0.00	30.485 
07:20	5.0	5.0	5.0	79	-0.1	0	0	---	0.00	30.485 
07:25	4.8	4.8	4.8	79	-0.3	0	0	---	0.00	30.485 
07:30	4.7	4.7	4.7	79	-0.4	0	0	---	0.00	30.484 
07:35	4.5	4.5	4.5	79	-0.5	0	0	---	0.00	30.484 
07:40	4.5	4.5	4.5	79	-0.5	0	0	---	0.00	30.484 
07:45	4.3	4.3	4.3	79	-0.7	0	0	---	0.00	30.484 
07:50	4.3	4.3	4.3	79	-0.7	0	0	---	0.00	30.484 
07:55	4.3	4.3	4.3	79	-0.7	0	0	---	0.00	30.484 
08:00	4.3	4.3	4.3	80	-0.5	0	0	---	0.00	30.484 
08:05	4.5	4.5	4.5	80	-0.3	0	0	---	0.00	30.484 
08:10	4.8	4.8	4.8	81	0.3	0	1	248	0.00	30.484 
08:15	5.4	5.4	5.4	81	0.9	0	0	---	0.00	30.482 
08:20	5.8	5.8	5.8	81	1.3	0	1	248	0.00	30.482 
08:25	6.3	6.3	6.3	81	1.7	0	1	248	0.00	30.482 
08:30	7.0	7.0	7.0	81	2.4	0	3	248	0.00	30.479 
08:35	7.7	7.7	7.7	80	2.8	0	3	248	0.00	30.479 
08:40	8.4	8.4	8.4	79	3.3	0	2	248	0.00	30.479 
08:45	9.3	9.3	9.3	77	3.6	1	4	112	0.00	30.476 
08:50	9.9	9.9	9.9	75	3.6	0	2	112	0.00	30.476 
08:55	10.5	10.5	10.5	74	3.9	1	3	90	0.00	30.476 
09:00	11.2	11.2	11.2	72	4.0	0	3	90	0.00	30.473 
09:05	11.9	11.9	11.9	71	4.3	1	3	112	0.00	30.473 
09:10	12.6	12.6	12.6	70	4.7	0	2	112	0.00	30.473 
09:15	13.1	13.1	13.1	67	4.2	1	5	112	0.00	30.475 
09:20	13.1	13.1	13.1	65	3.6	2	6	112	0.00	30.475 
09:25	13.3	13.3	13.3	66	4.1	1	6	90	0.00	30.475 
09:30	13.5	13.5	13.5	65	4.0	3	6	90	0.00	30.459 
09:35	13.6	13.6	13.6	63	3.4	3	7	90	0.00	30.459 
09:40	13.8	13.8	13.8	63	3.6	3	7	90	0.00	30.459 
09:45	14.3	14.3	14.3	62	3.7	2	10	90	0.00	30.459 
09:50	14.6	14.6	14.6	61	3.6	3	7	90	0.00	30.459 
09:55	15.1	15.1	15.1	60	3.7	2	4	112	0.00	30.459 
10:00	15.6	15.6	15.6	60	4.2	2	5	90	0.00	30.456 
10:05	15.4	15.4	15.4	60	4.0	3	7	90	0.00	30.456 
10:10	15.6	15.6	15.6	58	3.5	2	7	90	0.00	30.456 
10:15	15.6	15.6	15.6	57	3.1	2	5	90	0.00	30.447 
10:20	15.7	15.7	15.7	57	3.2	2	11	112	0.00	30.447 
10:25	15.7	15.7	15.7	56	2.8	3	9	112	0.00	30.447 
10:30	15.7	15.7	15.7	56	2.8	2	5	90	0.00	30.432 
10:35	16.1	16.1	16.1	55	2.8	2	6	112	0.00	30.432 
10:40	16.2	16.2	16.2	55	2.9	3	9	112	0.00	30.432 
10:45	16.2	16.2	16.2	55	2.9	2	6	112	0.00	30.422 
10:50	16.2	16.2	16.2	55	2.9	2	7	112	0.00	30.422 
10:55	16.4	16.4	16.4	55	3.1	2	6	112	0.00	30.422 
11:00	16.4	16.4	16.4	56	3.5	2	7	112	0.00	30.405 
11:05	16.2	16.2	16.2	55	2.9	3	10	90	0.00	30.405 
11:10	16.1	16.1	16.1	56	3.2	3	7	112	0.00	30.405 
11:15	16.1	16.1	16.1	56	3.2	3	8	112	0.00	30.382 
11:20	15.9	8.2	15.9	56	3.0	5	10	112	0.00	30.382 
11:25	15.9	9.5	15.9	57	3.4	4	10	112	0.00	30.382 
11:30	16.2	16.2	16.2	57	3.7	3	10	112	0.00	30.374 
11:35	16.5	10.2	16.5	55	3.2	4	13	90	0.00	30.374 
11:40	16.5	10.2	16.5	55	3.2	4	10	90	0.00	30.374 
11:45	16.9	16.9	16.9	56	4.0	2	6	90	0.00	30.392 
11:50	17.2	17.2	17.2	54	3.4	3	7	90	0.00	30.392 
11:55	17.3	17.3	17.3	54	3.5	2	6	112	0.00	30.392 
12:00	17.5	17.5	17.5	53	3.3	2	9	68	0.00	30.398 
12:05	17.8	17.8	17.8	54	4.0	2	5	112	0.00	30.398 
12:10	18.0	18.0	18.0	53	3.8	3	10	90	0.00	30.398 
12:15	18.3	18.3	18.3	53	4.1	1	4	112	0.00	30.391 
12:20	18.3	18.3	18.3	53	4.1	2	10	112	0.00	30.391 
12:25	18.4	18.4	18.4	52	3.8	2	7	90	0.00	30.391 
12:30	18.6	18.6	18.6	52	3.9	2	6	90	0.00	30.370 
12:35	18.8	18.8	18.8	53	4.5	2	6	90	0.00	30.370 
12:40	18.9	18.9	18.9	52	4.2	2	9	112	0.00	30.370 
12:45	19.1	19.1	19.1	51	4.0	1	5	90	0.00	30.364 
12:50	19.1	19.1	19.1	51	4.0	1	7	90	0.00	30.364 
12:55	19.1	19.1	19.1	51	4.0	2	7	112	0.00	30.364 
13:00	19.1	19.1	19.1	51	4.0	1	5	112	0.00	30.351 
13:05	19.1	19.1	19.1	50	3.6	2	6	90	0.00	30.351 
13:10	18.9	18.9	18.9	51	3.8	1	6	90	0.00	30.351 
13:15	18.8	18.8	18.8	52	4.1	2	7	90	0.00	30.346 
13:20	18.8	18.8	18.8	52	4.1	2	5	90	0.00	30.346 
13:25	18.6	18.6	18.6	51	3.5	2	5	90	0.00	30.346 
13:30	18.6	18.6	18.6	50	3.1	2	10	112	0.00	30.329 
13:35	18.8	18.8	18.8	50	3.3	2	5	90	0.00	30.329 
13:40	18.8	18.8	18.8	51	3.7	2	5	90	0.00	30.329 
13:45	18.9	18.9	18.9	52	4.2	2	5	112	0.00	30.315 
13:50	18.9	18.9	18.9	52	4.2	2	4	90	0.00	30.315 
13:55	19.2	19.2	19.2	51	4.1	2	6	90	0.00	30.315 
14:00	19.2	19.2	19.2	50	3.6	2	7	90	0.00	30.320 
14:05	19.2	19.2	19.2	50	3.6	2	5	90	0.00	30.320 
14:10	19.1	13.2	19.1	50	3.6	4	7	90	0.00	30.320 
14:15	19.1	19.1	19.1	50	3.6	2	6	90	0.00	30.296 
14:20	19.2	19.2	19.2	50	3.6	1	6	90	0.00	30.296 
14:25	19.2	19.2	19.2	50	3.6	2	6	90	0.00	30.296 
14:30	19.1	19.1	19.1	48	2.7	2	9	90	0.00	30.277 
14:35	18.9	18.9	18.9	47	2.0	1	6	90	0.00	30.277 
14:40	18.9	18.9	18.9	49	2.9	1	8	112	0.00	30.277 
14:45	18.9	18.9	18.9	50	3.4	2	9	112	0.00	30.281 
14:50	19.1	19.1	19.1	50	3.6	1	5	112	0.00	30.281 
14:55	19.1	19.1	19.1	49	3.1	3	9	112	0.00	30.281 
15:00	19.1	19.1	19.1	50	3.6	1	7	90	0.00	30.282 
15:05	19.1	19.1	19.1	49	3.1	3	7	112	0.00	30.282 
15:10	19.1	19.1	19.1	48	2.7	3	10	112	0.00	30.282 
15:15	19.1	19.1	19.1	49	3.1	1	5	90	0.00	30.294 
15:20	19.1	19.1	19.1	49	3.1	1	5	90	0.00	30.294 
15:25	19.1	19.1	19.1	48	2.7	1	4	90	0.00	30.294 
15:30	18.9	18.9	18.9	49	2.9	1	6	68	0.00	30.284 
15:35	18.9	18.9	18.9	50	3.4	1	5	112	0.00	30.284 
15:40	18.9	18.9	18.9	50	3.4	2	5	112	0.00	30.284 
15:45	18.8	18.8	18.8	51	3.7	1	4	112	0.00	30.278 
15:50	18.8	18.8	18.8	51	3.7	1	4	112	0.00	30.278 
15:55	18.9	18.9	18.9	52	4.2	2	7	90	0.00	30.278 
16:00	18.8	18.8	18.8	53	4.5	3	11	112	0.00	30.263 
16:05	18.6	18.6	18.6	54	4.8	3	7	90	0.00	30.263 
16:10	18.4	18.4	18.4	54	4.6	3	10	90	0.00	30.263 
16:15	18.3	12.3	18.3	55	4.9	4	11	112	0.00	30.252 
16:20	18.4	18.4	18.4	57	5.7	1	4	90	0.00	30.252 
16:25	18.4	18.4	18.4	57	5.7	3	7	112	0.00	30.252 
16:30	18.4	18.4	18.4	59	6.5	1	5	112	0.00	30.252 
16:35	18.4	18.4	18.4	62	7.6	2	6	112	0.00	30.252 
16:40	18.3	18.3	18.3	64	8.2	2	6	112	0.00	30.252 
16:45	18.1	18.1	18.1	65	8.3	1	7	112	0.00	30.252 
16:50	18.0	18.0	18.0	67	8.9	3	7	112	0.00	30.252 
16:55	17.7	11.6	17.7	68	9.0	4	11	112	0.00	30.252 
17:00	17.5	17.5	17.5	70	9.4	3	10	112	0.00	30.252 
17:05	17.3	11.1	17.3	71	9.5	4	10	90	0.00	30.252 
17:10	17.2	17.2	17.2	73	10.1	2	6	112	0.00	30.252 
17:15	17.2	17.2	17.2	74	10.4	3	7	90	0.00	30.249 
17:20	17.0	10.7	17.0	74	10.2	4	10	112	0.00	30.249 
17:25	16.7	10.4	16.7	75	10.2	4	8	112	0.00	30.249 
17:30	16.5	10.2	16.5	76	10.3	4	11	112	0.00	30.243 
17:35	16.5	16.5	16.5	77	10.6	3	6	90	0.00	30.243 
17:40	16.5	16.5	16.5	79	11.1	2	6	112	0.00	30.243 
17:45	16.5	16.5	16.5	79	11.1	3	9	112	0.00	30.235 
17:50	16.5	10.2	16.5	80	11.4	4	11	112	0.00	30.235 
17:55	16.4	10.1	16.4	80	11.3	4	7	90	0.00	30.235 
18:00	16.4	16.4	16.4	81	11.6	3	8	112	0.00	30.236 
18:05	16.4	16.4	16.4	82	11.9	2	5	112	0.00	30.236 
18:10	16.4	16.4	16.4	82	11.9	3	10	112	0.00	30.236 
18:15	16.2	9.8	16.2	83	12.0	4	9	90	0.00	30.234 
18:20	16.2	16.2	16.2	83	12.0	3	7	90	0.00	30.234 
18:25	16.1	9.7	16.1	82	11.6	4	13	112	0.00	30.234 
18:30	15.9	9.5	15.9	82	11.4	4	9	112	0.00	30.236 
18:35	15.7	15.7	15.7	83	11.5	2	7	112	0.00	30.236 
18:40	15.7	15.7	15.7	83	11.5	1	6	112	0.00	30.236 
18:45	15.7	9.2	15.7	83	11.5	4	9	112	0.00	30.233 
18:50	15.6	9.1	15.6	83	11.4	4	10	112	0.00	30.233 
18:55	15.7	15.7	15.7	83	11.5	1	5	112	0.00	30.233 
19:00	15.6	15.6	15.6	83	11.4	3	7	112	0.00	30.231 
19:05	15.6	15.6	15.6	84	11.6	3	7	112	0.00	30.231 
19:10	15.6	15.6	15.6	84	11.6	3	5	90	0.00	30.231 
19:15	15.6	15.6	15.6	84	11.6	3	7	90	0.00	30.224 
19:20	15.6	15.6	15.6	84	11.6	3	5	112	0.00	30.224 
19:25	15.6	15.6	15.6	84	11.6	3	7	90	0.00	30.224 
19:30	15.6	15.6	15.6	84	11.6	3	6	112	0.00	30.225 
19:35	15.7	15.7	15.7	84	11.7	2	6	90	0.00	30.225 
19:40	15.7	15.7	15.7	84	11.7	3	9	90	0.00	30.225 
19:45	15.7	15.7	15.7	84	11.7	3	6	112	0.00	30.221 
19:50	15.7	15.7	15.7	84	11.7	3	5	90	0.00	30.221 
19:55	15.7	15.7	15.7	84	11.7	2	5	90	0.00	30.221 
20:00	15.7	15.7	15.7	84	11.7	3	7	112	0.00	30.210 
20:05	15.7	15.7	15.7	84	11.7	3	10	112	0.00	30.210 
20:10	15.7	15.7	15.7	84	11.7	3	7	90	0.00	30.210 
20:15	15.7	15.7	15.7	84	11.7	3	7	112	0.00	30.204 
20:20	15.9	15.9	15.9	84	11.9	3	6	90	0.00	30.204 
20:25	15.9	15.9	15.9	84	11.9	3	7	112	0.00	30.204 
20:30	15.9	15.9	15.9	84	11.9	3	6	112	0.00	30.191 
20:35	16.1	16.1	16.1	84	12.1	2	6	112	0.00	30.191 
20:40	16.1	9.7	16.1	84	12.1	4	9	90	0.00	30.191 
20:45	16.1	9.7	16.1	84	12.1	4	7	90	0.00	30.179 
20:50	16.1	16.1	16.1	84	12.1	3	7	90	0.00	30.179 
20:55	16.1	9.7	16.1	83	11.9	4	9	112	0.00	30.179 
21:00	16.1	9.7	16.1	84	12.1	4	8	112	0.00	30.167 
21:05	16.1	16.1	16.1	84	12.1	3	9	112	0.00	30.167 
21:10	16.1	16.1	16.1	84	12.1	3	8	90	0.00	30.167 
21:15	16.1	16.1	16.1	84	12.1	2	9	90	0.00	30.164 
21:20	16.1	16.1	16.1	84	12.1	3	7	112	0.00	30.164 
21:25	16.1	16.1	16.1	84	12.1	3	9	112	0.00	30.164 
21:30	16.1	16.1	16.1	83	11.9	3	6	112	0.00	30.163 
21:35	16.1	16.1	16.1	83	11.9	2	5	90	0.00	30.163 
21:40	16.1	16.1	16.1	83	11.9	2	4	90	0.00	30.163 
21:45	16.1	16.1	16.1	83	11.9	2	5	90	0.00	30.164 
21:50	16.1	16.1	16.1	83	11.9	2	5	112	0.00	30.164 
21:55	16.1	16.1	16.1	83	11.9	1	5	112	0.00	30.164 
22:00	16.1	16.1	16.1	83	11.9	2	5	90	0.00	30.164 
22:05	16.1	16.1	16.1	83	11.9	1	6	112	0.00	30.164 
22:10	16.1	16.1	16.1	83	11.9	1	6	90	0.00	30.164 
22:15	16.2	16.2	16.2	83	12.0	2	6	112	0.00	30.162 
22:20	16.2	16.2	16.2	83	12.0	2	6	90	0.00	30.162 
22:25	16.2	16.2	16.2	83	12.0	1	4	90	0.00	30.162 
22:30	16.2	16.2	16.2	83	12.0	2	7	90	0.00	30.150 
22:35	16.2	16.2	16.2	83	12.0	2	7	112	0.00	30.150 
22:40	16.4	16.4	16.4	83	12.2	3	7	112	0.00	30.150 
22:45	16.4	16.4	16.4	83	12.2	3	8	112	0.00	30.147 
22:50	16.4	16.4	16.4	83	12.2	2	8	112	0.00	30.147 
22:55	16.4	16.4	16.4	83	12.2	2	5	112	0.00	30.147 
23:00	16.5	16.5	16.5	83	12.3	2	6	90	0.00	30.137 
23:05	16.5	16.5	16.5	83	12.3	2	9	112	0.00	30.137 
23:10	16.5	16.5	16.5	83	12.3	2	6	112	0.00	30.137 
23:15	16.5	16.5	16.5	83	12.3	3	9	90	0.00	30.127 
23:20	16.5	16.5	16.5	83	12.3	3	7	90	0.00	30.127 
23:25	16.5	16.5	16.5	83	12.3	3	7	112	0.00	30.127 
23:30	16.5	16.5	16.5	83	12.3	2	5	90	0.00	30.122 
23:35	16.5	16.5	16.5	84	12.5	2	7	90	0.00	30.122 
23:40	16.5	16.5	16.5	84	12.5	2	6	90	0.00	30.122 
23:45	16.5	16.5	16.5	84	12.5	1	4	90	0.00	30.121 
23:50	16.5	16.5	16.5	84	12.5	2	6	90	0.00	30.121 
23:55	16.5	16.5	16.5	84	12.5	2	5	112	0.00	30.121 

CoCoRaHS
IN-AL-39
A2 Web Hosting
Creative Commons License
GoDaddy
search engine by freefind advanced

loaded 2018-11-12 15:54:15 • last modified 2010-11-18 10:43:29
Privacy PolicyDisclaimer
• wx.awcolley.com is powered by PmWiki v.2002016 •
• all content (unless otherwise noted) © 2018 A W Colley